Aviation Digital Data Service (ADDS)

Output produced by METARs form (1346 UTC 09 February 2016)
found at http://aviationweather.gov/adds/metars/
 
KJHW 091146Z 0912/1012 23006KT P6SM VCSH BKN008 
     TEMPO 0913/0917 SCT008 BKN015 
     FM091700 25010KT P6SM VCSH OVC015 
     FM100000 24008KT P6SM OVC015 
     FM100600 25008KT P6SM VCSH OVC007 
     FM101000 26010KT 2SM -SN OVC003 AMD LTD TO CLD VIS AND WIND